sensor_id;sensor_type;location;lat;lon;timestamp;P1;durP1;ratioP1;P2;durP2;ratioP2
76292;SDS011;65101;51.140;4.088;2022-12-15T00:01:22;16.17;;;10.00;;
76292;SDS011;65101;51.140;4.088;2022-12-15T00:04:06;15.18;;;9.65;;
76292;SDS011;65101;51.140;4.088;2022-12-15T00:06:50;14.13;;;9.75;;
76292;SDS011;65101;51.140;4.088;2022-12-15T00:09:35;14.98;;;9.65;;
76292;SDS011;65101;51.140;4.088;2022-12-15T00:12:19;15.23;;;10.45;;
76292;SDS011;65101;51.140;4.088;2022-12-15T00:15:03;13.55;;;9.80;;
76292;SDS011;65101;51.140;4.088;2022-12-15T00:17:48;14.05;;;9.50;;
76292;SDS011;65101;51.140;4.088;2022-12-15T00:20:32;13.32;;;9.13;;
76292;SDS011;65101;51.140;4.088;2022-12-15T00:23:16;14.25;;;9.57;;
76292;SDS011;65101;51.140;4.088;2022-12-15T00:26:00;16.13;;;10.02;;
76292;SDS011;65101;51.140;4.088;2022-12-15T00:28:44;12.65;;;9.43;;
76292;SDS011;65101;51.140;4.088;2022-12-15T00:31:29;15.25;;;10.30;;
76292;SDS011;65101;51.140;4.088;2022-12-15T00:34:13;16.77;;;9.77;;
76292;SDS011;65101;51.140;4.088;2022-12-15T00:36:57;14.43;;;8.77;;
76292;SDS011;65101;51.140;4.088;2022-12-15T00:39:41;14.60;;;9.70;;
76292;SDS011;65101;51.140;4.088;2022-12-15T00:42:07;15.45;;;10.10;;
76292;SDS011;65101;51.140;4.088;2022-12-15T00:44:33;15.70;;;9.50;;
76292;SDS011;65101;51.140;4.088;2022-12-15T00:47:01;15.40;;;10.52;;
76292;SDS011;65101;51.140;4.088;2022-12-15T00:49:28;14.50;;;9.65;;
76292;SDS011;65101;51.140;4.088;2022-12-15T00:52:13;14.88;;;10.20;;
76292;SDS011;65101;51.140;4.088;2022-12-15T00:54:59;13.35;;;8.82;;
76292;SDS011;65101;51.140;4.088;2022-12-15T00:57:44;11.60;;;8.35;;
76292;SDS011;65101;51.140;4.088;2022-12-15T01:00:28;13.10;;;8.77;;
76292;SDS011;65101;51.140;4.088;2022-12-15T01:03:22;14.05;;;9.52;;
76292;SDS011;65101;51.140;4.088;2022-12-15T01:06:07;14.18;;;9.48;;
76292;SDS011;65101;51.140;4.088;2022-12-15T01:08:53;13.35;;;9.73;;
76292;SDS011;65101;51.140;4.088;2022-12-15T01:11:37;12.63;;;9.77;;
76292;SDS011;65101;51.140;4.088;2022-12-15T01:14:22;14.85;;;10.27;;
76292;SDS011;65101;51.140;4.088;2022-12-15T01:17:06;16.73;;;10.45;;
76292;SDS011;65101;51.140;4.088;2022-12-15T01:19:50;15.73;;;10.55;;
76292;SDS011;65101;51.140;4.088;2022-12-15T01:22:35;15.55;;;9.65;;
76292;SDS011;65101;51.140;4.088;2022-12-15T01:25:01;14.90;;;10.45;;
76292;SDS011;65101;51.140;4.088;2022-12-15T01:27:28;15.68;;;9.98;;
76292;SDS011;65101;51.140;4.088;2022-12-15T01:29:54;14.60;;;10.23;;
76292;SDS011;65101;51.140;4.088;2022-12-15T01:32:19;13.93;;;9.98;;
76292;SDS011;65101;51.140;4.088;2022-12-15T01:34:45;13.32;;;8.77;;
76292;SDS011;65101;51.140;4.088;2022-12-15T01:37:11;17.70;;;11.07;;
76292;SDS011;65101;51.140;4.088;2022-12-15T01:39:36;14.13;;;9.40;;
76292;SDS011;65101;51.140;4.088;2022-12-15T01:42:20;14.35;;;10.32;;
76292;SDS011;65101;51.140;4.088;2022-12-15T01:44:48;15.18;;;9.75;;
76292;SDS011;65101;51.140;4.088;2022-12-15T01:47:16;14.55;;;9.35;;
76292;SDS011;65101;51.140;4.088;2022-12-15T01:49:42;13.68;;;10.07;;
76292;SDS011;65101;51.140;4.088;2022-12-15T01:52:12;14.23;;;10.32;;
76292;SDS011;65101;51.140;4.088;2022-12-15T01:54:45;14.15;;;10.23;;
76292;SDS011;65101;51.140;4.088;2022-12-15T01:57:20;14.60;;;9.93;;
76292;SDS011;65101;51.140;4.088;2022-12-15T01:59:51;14.50;;;9.68;;
76292;SDS011;65101;51.140;4.088;2022-12-15T02:02:22;13.80;;;9.32;;
76292;SDS011;65101;51.140;4.088;2022-12-15T02:04:51;13.00;;;9.40;;
76292;SDS011;65101;51.140;4.088;2022-12-15T02:07:21;15.85;;;10.25;;
76292;SDS011;65101;51.140;4.088;2022-12-15T02:09:47;11.77;;;8.40;;
76292;SDS011;65101;51.140;4.088;2022-12-15T02:15:07;13.02;;;9.90;;
76292;SDS011;65101;51.140;4.088;2022-12-15T02:32:30;14.40;;;10.65;;
76292;SDS011;65101;51.140;4.088;2022-12-15T02:35:08;12.85;;;9.43;;
76292;SDS011;65101;51.140;4.088;2022-12-15T02:37:40;13.77;;;9.98;;
76292;SDS011;65101;51.140;4.088;2022-12-15T02:40:08;12.73;;;9.70;;
76292;SDS011;65101;51.140;4.088;2022-12-15T02:42:35;11.88;;;8.98;;
76292;SDS011;65101;51.140;4.088;2022-12-15T02:45:08;13.60;;;10.23;;
76292;SDS011;65101;51.140;4.088;2022-12-15T02:53:05;13.63;;;9.88;;
76292;SDS011;65101;51.140;4.088;2022-12-15T02:55:40;16.00;;;10.60;;
76292;SDS011;65101;51.140;4.088;2022-12-15T03:00:53;13.55;;;9.93;;
76292;SDS011;65101;51.140;4.088;2022-12-15T03:03:35;13.18;;;9.90;;
76292;SDS011;65101;51.140;4.088;2022-12-15T03:06:02;14.65;;;9.95;;
76292;SDS011;65101;51.140;4.088;2022-12-15T03:08:28;12.93;;;9.52;;
76292;SDS011;65101;51.140;4.088;2022-12-15T03:10:54;15.57;;;10.73;;
76292;SDS011;65101;51.140;4.088;2022-12-15T03:13:22;13.27;;;9.93;;
76292;SDS011;65101;51.140;4.088;2022-12-15T03:15:48;14.50;;;10.75;;
76292;SDS011;65101;51.140;4.088;2022-12-15T03:18:14;12.30;;;9.50;;
76292;SDS011;65101;51.140;4.088;2022-12-15T03:20:40;12.57;;;10.10;;
76292;SDS011;65101;51.140;4.088;2022-12-15T03:23:06;12.38;;;9.60;;
76292;SDS011;65101;51.140;4.088;2022-12-15T03:25:31;14.70;;;10.20;;
76292;SDS011;65101;51.140;4.088;2022-12-15T03:27:57;15.65;;;11.05;;
76292;SDS011;65101;51.140;4.088;2022-12-15T03:30:23;16.05;;;10.32;;
76292;SDS011;65101;51.140;4.088;2022-12-15T03:32:48;14.65;;;11.45;;
76292;SDS011;65101;51.140;4.088;2022-12-15T03:35:14;14.55;;;10.35;;
76292;SDS011;65101;51.140;4.088;2022-12-15T03:37:40;15.00;;;10.55;;
76292;SDS011;65101;51.140;4.088;2022-12-15T03:40:07;13.68;;;10.38;;
76292;SDS011;65101;51.140;4.088;2022-12-15T03:42:33;13.35;;;9.68;;
76292;SDS011;65101;51.140;4.088;2022-12-15T03:45:17;16.80;;;11.00;;
76292;SDS011;65101;51.140;4.088;2022-12-15T03:47:45;14.00;;;10.68;;
76292;SDS011;65101;51.140;4.088;2022-12-15T03:50:12;13.48;;;10.35;;
76292;SDS011;65101;51.140;4.088;2022-12-15T03:52:39;15.63;;;11.35;;
76292;SDS011;65101;51.140;4.088;2022-12-15T03:55:05;14.13;;;9.88;;
76292;SDS011;65101;51.140;4.088;2022-12-15T03:57:32;12.43;;;10.25;;
76292;SDS011;65101;51.140;4.088;2022-12-15T03:59:57;14.98;;;11.23;;
76292;SDS011;65101;51.140;4.088;2022-12-15T04:02:23;11.98;;;10.20;;
76292;SDS011;65101;51.140;4.088;2022-12-15T04:04:49;13.00;;;9.45;;
76292;SDS011;65101;51.140;4.088;2022-12-15T04:07:14;12.77;;;9.73;;
76292;SDS011;65101;51.140;4.088;2022-12-15T04:09:40;15.35;;;10.82;;
76292;SDS011;65101;51.140;4.088;2022-12-15T04:12:06;14.02;;;10.25;;
76292;SDS011;65101;51.140;4.088;2022-12-15T04:14:33;11.82;;;10.00;;
76292;SDS011;65101;51.140;4.088;2022-12-15T04:16:59;14.70;;;10.75;;
76292;SDS011;65101;51.140;4.088;2022-12-15T04:19:25;13.68;;;10.57;;
76292;SDS011;65101;51.140;4.088;2022-12-15T04:22:09;13.32;;;10.02;;
76292;SDS011;65101;51.140;4.088;2022-12-15T04:24:34;13.95;;;10.00;;
76292;SDS011;65101;51.140;4.088;2022-12-15T04:27:19;13.85;;;9.93;;
76292;SDS011;65101;51.140;4.088;2022-12-15T04:30:03;12.77;;;9.70;;
76292;SDS011;65101;51.140;4.088;2022-12-15T04:32:47;14.05;;;9.70;;
76292;SDS011;65101;51.140;4.088;2022-12-15T04:35:32;12.10;;;8.88;;
76292;SDS011;65101;51.140;4.088;2022-12-15T04:38:17;12.27;;;9.50;;
76292;SDS011;65101;51.140;4.088;2022-12-15T04:41:03;13.93;;;9.93;;
76292;SDS011;65101;51.140;4.088;2022-12-15T04:43:47;11.25;;;9.93;;
76292;SDS011;65101;51.140;4.088;2022-12-15T04:46:31;13.60;;;10.60;;
76292;SDS011;65101;51.140;4.088;2022-12-15T04:49:15;12.73;;;10.18;;
76292;SDS011;65101;51.140;4.088;2022-12-15T04:51:59;12.43;;;9.85;;
76292;SDS011;65101;51.140;4.088;2022-12-15T04:54:43;13.38;;;9.05;;
76292;SDS011;65101;51.140;4.088;2022-12-15T04:57:27;15.80;;;10.60;;
76292;SDS011;65101;51.140;4.088;2022-12-15T05:00:11;14.48;;;10.75;;
76292;SDS011;65101;51.140;4.088;2022-12-15T05:02:56;13.98;;;10.27;;
76292;SDS011;65101;51.140;4.088;2022-12-15T05:05:47;14.70;;;10.57;;
76292;SDS011;65101;51.140;4.088;2022-12-15T05:08:31;13.82;;;10.52;;
76292;SDS011;65101;51.140;4.088;2022-12-15T05:11:15;13.80;;;10.00;;
76292;SDS011;65101;51.140;4.088;2022-12-15T05:14:00;12.63;;;9.98;;
76292;SDS011;65101;51.140;4.088;2022-12-15T05:16:44;13.88;;;10.63;;
76292;SDS011;65101;51.140;4.088;2022-12-15T05:19:28;14.68;;;10.48;;
76292;SDS011;65101;51.140;4.088;2022-12-15T05:22:12;12.07;;;9.45;;
76292;SDS011;65101;51.140;4.088;2022-12-15T05:24:56;11.98;;;9.90;;
76292;SDS011;65101;51.140;4.088;2022-12-15T05:27:40;12.30;;;9.30;;
76292;SDS011;65101;51.140;4.088;2022-12-15T05:30:25;13.23;;;10.38;;
76292;SDS011;65101;51.140;4.088;2022-12-15T05:33:09;12.23;;;9.43;;
76292;SDS011;65101;51.140;4.088;2022-12-15T05:35:34;12.35;;;9.52;;
76292;SDS011;65101;51.140;4.088;2022-12-15T05:38:00;10.18;;;9.05;;
76292;SDS011;65101;51.140;4.088;2022-12-15T05:40:25;13.00;;;9.82;;
76292;SDS011;65101;51.140;4.088;2022-12-15T05:42:51;13.95;;;10.40;;
76292;SDS011;65101;51.140;4.088;2022-12-15T05:45:17;12.77;;;10.02;;
76292;SDS011;65101;51.140;4.088;2022-12-15T05:47:42;12.80;;;9.75;;
76292;SDS011;65101;51.140;4.088;2022-12-15T05:50:08;12.75;;;9.93;;
76292;SDS011;65101;51.140;4.088;2022-12-15T05:52:34;13.13;;;9.38;;
76292;SDS011;65101;51.140;4.088;2022-12-15T05:54:59;13.48;;;9.95;;
76292;SDS011;65101;51.140;4.088;2022-12-15T05:57:25;13.15;;;10.95;;
76292;SDS011;65101;51.140;4.088;2022-12-15T05:59:50;15.25;;;11.82;;
76292;SDS011;65101;51.140;4.088;2022-12-15T06:02:16;12.18;;;8.93;;
76292;SDS011;65101;51.140;4.088;2022-12-15T06:04:41;12.15;;;10.05;;
76292;SDS011;65101;51.140;4.088;2022-12-15T06:07:07;13.90;;;10.25;;
76292;SDS011;65101;51.140;4.088;2022-12-15T06:09:33;14.15;;;9.82;;
76292;SDS011;65101;51.140;4.088;2022-12-15T06:11:58;14.80;;;10.27;;
76292;SDS011;65101;51.140;4.088;2022-12-15T06:14:24;12.55;;;9.65;;
76292;SDS011;65101;51.140;4.088;2022-12-15T06:16:50;12.35;;;9.18;;
76292;SDS011;65101;51.140;4.088;2022-12-15T06:19:15;14.63;;;10.30;;
76292;SDS011;65101;51.140;4.088;2022-12-15T06:21:41;13.82;;;10.00;;
76292;SDS011;65101;51.140;4.088;2022-12-15T06:24:07;12.82;;;10.23;;
76292;SDS011;65101;51.140;4.088;2022-12-15T06:26:37;11.40;;;9.77;;
76292;SDS011;65101;51.140;4.088;2022-12-15T06:29:05;11.20;;;9.23;;
76292;SDS011;65101;51.140;4.088;2022-12-15T06:31:32;12.77;;;9.52;;
76292;SDS011;65101;51.140;4.088;2022-12-15T06:33:58;13.85;;;9.57;;
76292;SDS011;65101;51.140;4.088;2022-12-15T06:36:27;11.80;;;9.38;;
76292;SDS011;65101;51.140;4.088;2022-12-15T06:38:56;13.07;;;9.98;;
76292;SDS011;65101;51.140;4.088;2022-12-15T06:41:26;12.35;;;9.55;;
76292;SDS011;65101;51.140;4.088;2022-12-15T06:43:54;14.27;;;10.45;;
76292;SDS011;65101;51.140;4.088;2022-12-15T06:46:20;13.52;;;10.40;;
76292;SDS011;65101;51.140;4.088;2022-12-15T06:48:47;12.52;;;10.45;;
76292;SDS011;65101;51.140;4.088;2022-12-15T06:51:13;12.38;;;9.95;;
76292;SDS011;65101;51.140;4.088;2022-12-15T06:53:40;14.02;;;10.15;;
76292;SDS011;65101;51.140;4.088;2022-12-15T06:56:16;14.48;;;10.68;;
76292;SDS011;65101;51.140;4.088;2022-12-15T06:58:47;12.68;;;9.73;;
76292;SDS011;65101;51.140;4.088;2022-12-15T07:01:14;14.55;;;10.30;;
76292;SDS011;65101;51.140;4.088;2022-12-15T07:03:41;15.45;;;11.15;;
76292;SDS011;65101;51.140;4.088;2022-12-15T07:06:08;14.40;;;10.50;;
76292;SDS011;65101;51.140;4.088;2022-12-15T07:08:35;14.70;;;9.75;;
76292;SDS011;65101;51.140;4.088;2022-12-15T07:11:02;12.23;;;10.23;;
76292;SDS011;65101;51.140;4.088;2022-12-15T07:13:28;12.45;;;9.93;;
76292;SDS011;65101;51.140;4.088;2022-12-15T07:15:57;12.98;;;10.10;;
76292;SDS011;65101;51.140;4.088;2022-12-15T07:18:23;13.73;;;10.40;;
76292;SDS011;65101;51.140;4.088;2022-12-15T07:20:50;13.55;;;10.27;;
76292;SDS011;65101;51.140;4.088;2022-12-15T07:23:15;12.25;;;9.18;;
76292;SDS011;65101;51.140;4.088;2022-12-15T07:25:41;12.23;;;10.00;;
76292;SDS011;65101;51.140;4.088;2022-12-15T07:28:07;15.57;;;9.38;;
76292;SDS011;65101;51.140;4.088;2022-12-15T07:30:33;13.43;;;9.80;;
76292;SDS011;65101;51.140;4.088;2022-12-15T07:33:00;13.13;;;9.48;;
76292;SDS011;65101;51.140;4.088;2022-12-15T07:35:26;12.93;;;9.73;;
76292;SDS011;65101;51.140;4.088;2022-12-15T07:37:51;11.95;;;9.55;;
76292;SDS011;65101;51.140;4.088;2022-12-15T07:40:17;10.75;;;8.50;;
76292;SDS011;65101;51.140;4.088;2022-12-15T07:42:43;10.52;;;8.68;;
76292;SDS011;65101;51.140;4.088;2022-12-15T07:45:09;12.35;;;9.52;;
76292;SDS011;65101;51.140;4.088;2022-12-15T07:47:35;13.65;;;9.00;;
76292;SDS011;65101;51.140;4.088;2022-12-15T07:50:00;11.43;;;9.05;;
76292;SDS011;65101;51.140;4.088;2022-12-15T07:52:26;13.93;;;9.68;;
76292;SDS011;65101;51.140;4.088;2022-12-15T07:54:52;11.57;;;8.77;;
76292;SDS011;65101;51.140;4.088;2022-12-15T07:57:18;9.77;;;8.65;;
76292;SDS011;65101;51.140;4.088;2022-12-15T07:59:43;14.05;;;10.20;;
76292;SDS011;65101;51.140;4.088;2022-12-15T08:02:10;13.52;;;9.93;;
76292;SDS011;65101;51.140;4.088;2022-12-15T08:04:37;11.57;;;9.13;;
76292;SDS011;65101;51.140;4.088;2022-12-15T08:07:03;11.77;;;9.57;;
76292;SDS011;65101;51.140;4.088;2022-12-15T08:09:29;10.98;;;8.38;;
76292;SDS011;65101;51.140;4.088;2022-12-15T08:11:55;12.43;;;8.90;;
76292;SDS011;65101;51.140;4.088;2022-12-15T08:14:21;10.48;;;8.43;;
76292;SDS011;65101;51.140;4.088;2022-12-15T08:16:47;12.20;;;9.93;;
76292;SDS011;65101;51.140;4.088;2022-12-15T08:19:13;13.07;;;9.57;;
76292;SDS011;65101;51.140;4.088;2022-12-15T08:21:40;12.25;;;9.52;;
76292;SDS011;65101;51.140;4.088;2022-12-15T08:24:07;12.45;;;9.88;;
76292;SDS011;65101;51.140;4.088;2022-12-15T08:26:34;12.48;;;9.45;;
76292;SDS011;65101;51.140;4.088;2022-12-15T08:29:02;12.18;;;9.50;;
76292;SDS011;65101;51.140;4.088;2022-12-15T08:31:29;12.52;;;9.45;;
76292;SDS011;65101;51.140;4.088;2022-12-15T08:33:57;10.75;;;9.05;;
76292;SDS011;65101;51.140;4.088;2022-12-15T08:36:23;13.93;;;10.02;;
76292;SDS011;65101;51.140;4.088;2022-12-15T08:38:48;11.00;;;9.68;;
76292;SDS011;65101;51.140;4.088;2022-12-15T08:43:41;11.88;;;9.95;;
76292;SDS011;65101;51.140;4.088;2022-12-15T08:46:07;12.75;;;10.07;;
76292;SDS011;65101;51.140;4.088;2022-12-15T08:48:33;11.90;;;9.43;;
76292;SDS011;65101;51.140;4.088;2022-12-15T08:50:59;14.15;;;9.82;;
76292;SDS011;65101;51.140;4.088;2022-12-15T08:53:26;11.68;;;9.98;;
76292;SDS011;65101;51.140;4.088;2022-12-15T08:55:51;11.82;;;10.00;;
76292;SDS011;65101;51.140;4.088;2022-12-15T08:58:17;12.13;;;9.80;;
76292;SDS011;65101;51.140;4.088;2022-12-15T09:00:43;12.73;;;9.65;;
76292;SDS011;65101;51.140;4.088;2022-12-15T09:03:10;11.80;;;9.43;;
76292;SDS011;65101;51.140;4.088;2022-12-15T09:05:37;12.70;;;9.65;;
76292;SDS011;65101;51.140;4.088;2022-12-15T09:08:03;12.35;;;8.93;;
76292;SDS011;65101;51.140;4.088;2022-12-15T09:10:29;10.73;;;8.90;;
76292;SDS011;65101;51.140;4.088;2022-12-15T09:12:55;11.85;;;9.70;;
76292;SDS011;65101;51.140;4.088;2022-12-15T09:15:21;12.25;;;9.45;;
76292;SDS011;65101;51.140;4.088;2022-12-15T09:17:46;12.77;;;9.38;;
76292;SDS011;65101;51.140;4.088;2022-12-15T09:20:13;11.93;;;10.00;;
76292;SDS011;65101;51.140;4.088;2022-12-15T09:22:41;11.93;;;9.35;;
76292;SDS011;65101;51.140;4.088;2022-12-15T09:25:07;11.38;;;9.65;;
76292;SDS011;65101;51.140;4.088;2022-12-15T09:27:33;14.98;;;9.77;;
76292;SDS011;65101;51.140;4.088;2022-12-15T09:29:59;15.20;;;10.52;;
76292;SDS011;65101;51.140;4.088;2022-12-15T09:32:26;13.48;;;10.52;;
76292;SDS011;65101;51.140;4.088;2022-12-15T09:34:52;14.88;;;10.73;;
76292;SDS011;65101;51.140;4.088;2022-12-15T09:37:18;16.17;;;10.18;;
76292;SDS011;65101;51.140;4.088;2022-12-15T09:39:45;13.70;;;10.48;;
76292;SDS011;65101;51.140;4.088;2022-12-15T09:42:21;11.95;;;9.70;;
76292;SDS011;65101;51.140;4.088;2022-12-15T09:44:49;13.55;;;9.88;;
76292;SDS011;65101;51.140;4.088;2022-12-15T09:47:25;14.65;;;9.73;;
76292;SDS011;65101;51.140;4.088;2022-12-15T09:50:15;14.30;;;10.10;;
76292;SDS011;65101;51.140;4.088;2022-12-15T09:52:47;13.73;;;10.33;;
76292;SDS011;65101;51.140;4.088;2022-12-15T09:55:17;12.13;;;9.20;;
76292;SDS011;65101;51.140;4.088;2022-12-15T09:57:54;11.93;;;9.68;;
76292;SDS011;65101;51.140;4.088;2022-12-15T10:00:42;13.45;;;10.52;;
76292;SDS011;65101;51.140;4.088;2022-12-15T10:06:04;14.88;;;10.00;;
76292;SDS011;65101;51.140;4.088;2022-12-15T10:08:40;13.75;;;9.85;;
76292;SDS011;65101;51.140;4.088;2022-12-15T10:17:04;11.90;;;9.80;;
76292;SDS011;65101;51.140;4.088;2022-12-15T10:19:29;13.80;;;9.65;;
76292;SDS011;65101;51.140;4.088;2022-12-15T10:22:03;13.48;;;8.60;;
76292;SDS011;65101;51.140;4.088;2022-12-15T10:24:30;11.73;;;9.13;;
76292;SDS011;65101;51.140;4.088;2022-12-15T10:29:50;12.55;;;9.05;;
76292;SDS011;65101;51.140;4.088;2022-12-15T10:32:24;14.63;;;9.82;;
76292;SDS011;65101;51.140;4.088;2022-12-15T10:34:57;12.93;;;9.70;;
76292;SDS011;65101;51.140;4.088;2022-12-15T10:37:22;11.57;;;9.57;;
76292;SDS011;65101;51.140;4.088;2022-12-15T10:39:49;18.00;;;9.73;;
76292;SDS011;65101;51.140;4.088;2022-12-15T10:42:17;16.98;;;10.68;;
76292;SDS011;65101;51.140;4.088;2022-12-15T10:44:56;15.77;;;10.07;;
76292;SDS011;65101;51.140;4.088;2022-12-15T10:47:23;13.90;;;9.13;;
76292;SDS011;65101;51.140;4.088;2022-12-15T10:49:51;13.00;;;9.55;;
76292;SDS011;65101;51.140;4.088;2022-12-15T10:52:18;12.88;;;9.15;;
76292;SDS011;65101;51.140;4.088;2022-12-15T10:54:48;11.20;;;8.88;;
76292;SDS011;65101;51.140;4.088;2022-12-15T10:57:18;11.50;;;9.15;;
76292;SDS011;65101;51.140;4.088;2022-12-15T10:59:43;17.95;;;9.35;;
76292;SDS011;65101;51.140;4.088;2022-12-15T11:07:42;11.18;;;9.18;;
76292;SDS011;65101;51.140;4.088;2022-12-15T11:10:13;13.82;;;8.50;;
76292;SDS011;65101;51.140;4.088;2022-12-15T11:12:41;13.90;;;8.70;;
76292;SDS011;65101;51.140;4.088;2022-12-15T11:17:45;12.75;;;8.77;;
76292;SDS011;65101;51.140;4.088;2022-12-15T11:20:34;11.70;;;8.32;;
76292;SDS011;65101;51.140;4.088;2022-12-15T11:23:08;12.02;;;8.93;;
76292;SDS011;65101;51.140;4.088;2022-12-15T11:31:37;12.57;;;8.82;;
76292;SDS011;65101;51.140;4.088;2022-12-15T11:34:12;12.47;;;7.97;;
76292;SDS011;65101;51.140;4.088;2022-12-15T11:39:50;10.50;;;8.43;;
76292;SDS011;65101;51.140;4.088;2022-12-15T11:47:49;12.27;;;8.23;;
76292;SDS011;65101;51.140;4.088;2022-12-15T12:03:38;9.93;;;8.07;;
76292;SDS011;65101;51.140;4.088;2022-12-15T12:06:31;11.35;;;8.32;;
76292;SDS011;65101;51.140;4.088;2022-12-15T12:09:15;13.52;;;8.63;;
76292;SDS011;65101;51.140;4.088;2022-12-15T12:14:30;16.52;;;8.95;;
76292;SDS011;65101;51.140;4.088;2022-12-15T12:22:29;10.23;;;8.00;;
76292;SDS011;65101;51.140;4.088;2022-12-15T12:25:02;11.80;;;7.22;;
76292;SDS011;65101;51.140;4.088;2022-12-15T12:27:52;14.18;;;8.77;;
76292;SDS011;65101;51.140;4.088;2022-12-15T12:30:23;12.02;;;7.60;;
76292;SDS011;65101;51.140;4.088;2022-12-15T12:35:32;15.23;;;8.23;;
76292;SDS011;65101;51.140;4.088;2022-12-15T12:38:10;11.45;;;7.90;;
76292;SDS011;65101;51.140;4.088;2022-12-15T12:43:31;14.60;;;7.68;;
76292;SDS011;65101;51.140;4.088;2022-12-15T12:46:15;13.88;;;8.20;;
76292;SDS011;65101;51.140;4.088;2022-12-15T12:49:03;16.00;;;8.25;;
76292;SDS011;65101;51.140;4.088;2022-12-15T12:51:39;12.68;;;8.23;;
76292;SDS011;65101;51.140;4.088;2022-12-15T12:54:37;11.82;;;7.47;;
76292;SDS011;65101;51.140;4.088;2022-12-15T12:59:36;11.20;;;8.18;;
76292;SDS011;65101;51.140;4.088;2022-12-15T13:04:40;15.30;;;7.93;;
76292;SDS011;65101;51.140;4.088;2022-12-15T13:15:38;12.30;;;8.02;;
76292;SDS011;65101;51.140;4.088;2022-12-15T13:18:22;13.32;;;9.23;;
76292;SDS011;65101;51.140;4.088;2022-12-15T13:20:54;11.98;;;7.22;;
76292;SDS011;65101;51.140;4.088;2022-12-15T13:28:39;12.88;;;7.38;;
76292;SDS011;65101;51.140;4.088;2022-12-15T13:39:49;12.00;;;7.88;;
76292;SDS011;65101;51.140;4.088;2022-12-15T13:46:57;11.27;;;7.97;;
76292;SDS011;65101;51.140;4.088;2022-12-15T13:49:35;10.38;;;7.63;;
76292;SDS011;65101;51.140;4.088;2022-12-15T13:52:57;12.10;;;7.78;;
76292;SDS011;65101;51.140;4.088;2022-12-15T13:55:02;10.43;;;7.27;;
76292;SDS011;65101;51.140;4.088;2022-12-15T13:57:42;10.65;;;7.07;;
76292;SDS011;65101;51.140;4.088;2022-12-15T14:00:14;13.82;;;7.15;;
76292;SDS011;65101;51.140;4.088;2022-12-15T14:02:43;12.50;;;8.20;;
76292;SDS011;65101;51.140;4.088;2022-12-15T14:10:18;9.43;;;7.15;;
76292;SDS011;65101;51.140;4.088;2022-12-15T14:15:33;12.73;;;7.13;;
76292;SDS011;65101;51.140;4.088;2022-12-15T14:18:00;9.30;;;6.80;;
76292;SDS011;65101;51.140;4.088;2022-12-15T14:20:27;10.15;;;7.75;;
76292;SDS011;65101;51.140;4.088;2022-12-15T14:25:23;9.38;;;6.72;;
76292;SDS011;65101;51.140;4.088;2022-12-15T14:27:53;12.00;;;7.60;;
76292;SDS011;65101;51.140;4.088;2022-12-15T14:30:29;9.55;;;7.50;;
76292;SDS011;65101;51.140;4.088;2022-12-15T14:32:58;10.25;;;7.05;;
76292;SDS011;65101;51.140;4.088;2022-12-15T14:35:35;10.32;;;8.15;;
76292;SDS011;65101;51.140;4.088;2022-12-15T14:38:05;11.48;;;7.32;;
76292;SDS011;65101;51.140;4.088;2022-12-15T14:40:36;9.32;;;6.78;;
76292;SDS011;65101;51.140;4.088;2022-12-15T14:43:04;10.07;;;7.30;;
76292;SDS011;65101;51.140;4.088;2022-12-15T14:45:35;11.52;;;6.68;;
76292;SDS011;65101;51.140;4.088;2022-12-15T14:48:05;9.88;;;7.68;;
76292;SDS011;65101;51.140;4.088;2022-12-15T14:50:32;11.50;;;7.25;;
76292;SDS011;65101;51.140;4.088;2022-12-15T14:53:00;10.77;;;7.68;;
76292;SDS011;65101;51.140;4.088;2022-12-15T14:55:31;9.65;;;6.38;;
76292;SDS011;65101;51.140;4.088;2022-12-15T14:58:20;8.88;;;6.85;;
76292;SDS011;65101;51.140;4.088;2022-12-15T15:00:55;9.27;;;7.45;;
76292;SDS011;65101;51.140;4.088;2022-12-15T15:03:35;12.38;;;7.28;;
76292;SDS011;65101;51.140;4.088;2022-12-15T15:06:04;8.57;;;7.22;;
76292;SDS011;65101;51.140;4.088;2022-12-15T15:08:49;10.60;;;7.15;;
76292;SDS011;65101;51.140;4.088;2022-12-15T15:11:23;10.85;;;6.70;;
76292;SDS011;65101;51.140;4.088;2022-12-15T15:14:16;9.32;;;7.45;;
76292;SDS011;65101;51.140;4.088;2022-12-15T15:16:56;9.80;;;7.15;;
76292;SDS011;65101;51.140;4.088;2022-12-15T15:19:29;11.45;;;7.45;;
76292;SDS011;65101;51.140;4.088;2022-12-15T15:21:57;10.73;;;7.50;;
76292;SDS011;65101;51.140;4.088;2022-12-15T15:24:28;9.00;;;7.53;;
76292;SDS011;65101;51.140;4.088;2022-12-15T15:30:21;10.77;;;7.45;;
76292;SDS011;65101;51.140;4.088;2022-12-15T15:32:52;10.88;;;8.07;;
76292;SDS011;65101;51.140;4.088;2022-12-15T15:35:28;8.95;;;6.85;;
76292;SDS011;65101;51.140;4.088;2022-12-15T15:40:50;9.95;;;8.15;;
76292;SDS011;65101;51.140;4.088;2022-12-15T15:43:18;9.57;;;7.70;;
76292;SDS011;65101;51.140;4.088;2022-12-15T15:45:44;9.00;;;7.97;;
76292;SDS011;65101;51.140;4.088;2022-12-15T15:48:16;9.95;;;7.30;;
76292;SDS011;65101;51.140;4.088;2022-12-15T15:50:47;11.40;;;7.75;;
76292;SDS011;65101;51.140;4.088;2022-12-15T15:53:20;8.60;;;7.35;;
76292;SDS011;65101;51.140;4.088;2022-12-15T15:55:48;10.32;;;7.70;;
76292;SDS011;65101;51.140;4.088;2022-12-15T15:58:16;9.07;;;7.53;;
76292;SDS011;65101;51.140;4.088;2022-12-15T16:00:42;10.20;;;8.00;;
76292;SDS011;65101;51.140;4.088;2022-12-15T16:03:08;9.10;;;7.38;;
76292;SDS011;65101;51.140;4.088;2022-12-15T16:05:34;11.88;;;8.10;;
76292;SDS011;65101;51.140;4.088;2022-12-15T16:08:00;11.70;;;8.07;;
76292;SDS011;65101;51.140;4.088;2022-12-15T16:10:27;10.55;;;7.60;;
76292;SDS011;65101;51.140;4.088;2022-12-15T16:12:53;9.88;;;7.80;;
76292;SDS011;65101;51.140;4.088;2022-12-15T16:15:22;10.95;;;8.02;;
76292;SDS011;65101;51.140;4.088;2022-12-15T16:17:52;9.93;;;8.13;;
76292;SDS011;65101;51.140;4.088;2022-12-15T16:20:19;14.07;;;8.57;;
76292;SDS011;65101;51.140;4.088;2022-12-15T16:22:47;9.32;;;7.10;;
76292;SDS011;65101;51.140;4.088;2022-12-15T16:25:21;9.32;;;8.13;;
76292;SDS011;65101;51.140;4.088;2022-12-15T16:27:49;10.95;;;8.63;;
76292;SDS011;65101;51.140;4.088;2022-12-15T16:30:16;10.65;;;8.85;;
76292;SDS011;65101;51.140;4.088;2022-12-15T16:32:44;12.77;;;9.90;;
76292;SDS011;65101;51.140;4.088;2022-12-15T16:35:10;10.32;;;8.48;;
76292;SDS011;65101;51.140;4.088;2022-12-15T16:37:36;10.88;;;9.02;;
76292;SDS011;65101;51.140;4.088;2022-12-15T16:40:10;11.23;;;7.75;;
76292;SDS011;65101;51.140;4.088;2022-12-15T16:42:38;10.15;;;8.98;;
76292;SDS011;65101;51.140;4.088;2022-12-15T16:45:12;13.60;;;11.02;;
76292;SDS011;65101;51.140;4.088;2022-12-15T16:47:39;11.27;;;8.60;;
76292;SDS011;65101;51.140;4.088;2022-12-15T16:50:05;12.10;;;8.40;;
76292;SDS011;65101;51.140;4.088;2022-12-15T16:52:30;10.65;;;8.13;;
76292;SDS011;65101;51.140;4.088;2022-12-15T16:54:56;11.77;;;8.65;;
76292;SDS011;65101;51.140;4.088;2022-12-15T16:57:22;10.20;;;8.23;;
76292;SDS011;65101;51.140;4.088;2022-12-15T16:59:47;10.25;;;8.57;;
76292;SDS011;65101;51.140;4.088;2022-12-15T17:04:49;12.02;;;8.05;;
76292;SDS011;65101;51.140;4.088;2022-12-15T17:07:15;13.38;;;7.70;;
76292;SDS011;65101;51.140;4.088;2022-12-15T17:09:41;10.75;;;8.90;;
76292;SDS011;65101;51.140;4.088;2022-12-15T17:12:14;11.52;;;8.88;;
76292;SDS011;65101;51.140;4.088;2022-12-15T17:14:42;11.02;;;8.88;;
76292;SDS011;65101;51.140;4.088;2022-12-15T17:17:17;10.50;;;8.23;;